Peoria, IL (61615)

5:27 AM CST on January 18, 2017 (GMT -0600)
Chapel Park | | Change Station

Elev 770 ft 40.82 °N, 89.62 °W | Updated 1 second ago

Overcast
Overcast
34.8 °F
Feels Like 30 °F
N
5.0
Wind Variable Wind from WNW
Gusts 7.0 mph

Today
High -- | Low -- °F
--% Chance of Precip.
Yesterday
High -- | Low -- °F
Precip. -- in
Pressure 30.17 in
Visibility 9.0 miles
Clouds Overcast 700 ft
Windchill 30 °F
Dew Point 34 °F
Humidity 96%
Rainfall 0.00 in
Snow Depth Not available.
7:19 AM 4:59 PM
Waning Gibbous, 64% visible
METAR KPIA 181054Z 28006KT 9SM OVC007 02/01 A3015 RMK AO2 SLP217 T00220011 $
Pressure 30.17 in
Visibility 9.0 miles
Clouds Overcast 700 ft
Windchill 30 °F
Dew Point 34 °F
Humidity 96%
Rainfall 0.00 in
Snow Depth Not available.
7:19 AM 4:59 PM
Waning Gibbous, 64% visible
METAR KPIA 181054Z 28006KT 9SM OVC007 02/01 A3015 RMK AO2 SLP217 T00220011 $

Get Your Daily Forecast Email!

Thanks for signing up!

Be on the lookout for a verification email in your inbox.

You'll start receiving the daily forecast at 8 AM.

×

10-Day Weather Forecast

Almanac

Astronomy

Jan. 18, 2017 Rise Set
Actual Time
Civil Twilight
Nautical Twilight
Astronomical Twilight
Moon
Length of Visible Light
Length of Day
Tomorrow will be .
, % of the Moon is Illuminated

Today's Extremes

State Highs State Lows

Community

WunderPhotos

Upload Photos

1,962,540 photos uploaded!

WunderBlog® & News

Nearby

Air Quality

  Air Quality AQ Index Pollutant
Not available.

Snow Depth

Station Depth Elevation

Earthquake Activity

City Distance Mag. Time & Date
Minimum magnitude displayed is 2.5.

Coastal Water Temperatures

Place Temperature

Stations

Nearby Weather Stations

Station Location Temp. Windchill Dew Point Humidity Wind Precip. Elev Updated Type
                   

Watches & Warnings

There are currently no watches in effect.